• Join FlightAware (Why Join?)
  • Login
  • US Flag 
07:03PM EDT


 

Airport Tracker/Info


-or-


 

Live Flight TrackerFlight Track Log ✈ AIP5006 ✈ 03-Sep-2013 ✈ KBIL - KBTM

Flight Track Log - Related Links

Times and Time Zones

All times are in EDT time to prevent confusion due to time zone crossing. See the AIP5006 flight status page for this flight to view local times or setup timezone preferences in your user account.

Time Position Orientation Groundspeed Altitude Reporting Facility
EDT Latitude Longitude Course Direction KTS MPH feet Rate Location/Type
05:08AM 45.8172 -108.5858 270° West 125 144 4,900  Level Salt Lake Center
05:09AM 45.8175 -108.6397 270° West 134 154 5,800 900 Climbing Salt Lake Center
05:10AM 45.8192 -108.6975 272° West 143 165 6,800 900 Climbing Salt Lake Center
05:11AM 45.8250 -108.7581 278° West 156 180 7,700 840 Climbing Salt Lake Center
05:12AM 45.8292 -108.8183 276° West 154 177 8,600 900 Climbing Salt Lake Center
05:13AM 45.8339 -108.8844 276° West 155 178 9,600 900 Climbing Salt Lake Center
05:14AM 45.8311 -108.9472 266° West 160 184 10,400 780 Climbing Salt Lake Center
05:15AM 45.8328 -109.0072 272° West 155 178 11,200 840 Climbing Salt Lake Center
05:16AM 45.8328 -109.0703 270° West 159 183 12,100 840 Climbing Salt Lake Center
05:17AM 45.8336 -109.1317 271° West 157 181 12,900 720 Climbing Salt Lake Center
05:18AM 45.8333 -109.1944 270° West 159 183 13,600 540 Climbing Salt Lake Center
05:19AM 45.8328 -109.2600 269° West 165 190 14,000 180 Climbing Salt Lake Center
05:20AM 45.8344 -109.3406 272° West 189 217 14,000  Level Salt Lake Center
05:21AM 45.8364 -109.4214 272° West 203 234 14,100  Climbing Salt Lake Center
05:22AM 45.8375 -109.5039 271° West 209 241 14,100 -60 Level Salt Lake Center
05:23AM 45.8408 -109.5875 273° West 213 245 14,000 -60 Descending Salt Lake Center
05:24AM 45.8436 -109.6719 273° West 214 246 14,000  Level Salt Lake Center
05:25AM 45.8350 -109.7586 262° West 223 257 14,000  Level Salt Lake Center
05:26AM 45.8322 -109.8514 268° West 226 260 14,000 -60 Level Salt Lake Center
05:27AM 45.8294 -109.9392 267° West 223 257 13,900  Descending Salt Lake Center
05:28AM 45.8375 -110.0267 278° West 221 254 14,000  Climbing Salt Lake Center
05:29AM 45.8467 -110.1114 279° West 218 251 13,900  Descending Salt Lake Center
05:30AM 45.8500 -110.2000 273° West 221 254 14,000 60 Climbing Salt Lake Center
05:31AM 45.8494 -110.2867 270° West 220 253 14,100  Climbing Salt Lake Center
05:32AM 45.8544 -110.3728 275° West 218 251 14,100  Level Salt Lake Center
05:33AM 45.8564 -110.4597 272° West 218 251 14,100  Level Salt Lake Center
05:34AM 45.8564 -110.5453 270° West 217 250 14,100 -60 Level Salt Lake Center
05:35AM 45.8586 -110.6328 272° West 218 251 14,000  Descending Salt Lake Center
05:36AM 45.8575 -110.7208 269° West 219 252 14,100  Climbing Salt Lake Center
05:37AM 45.8581 -110.8075 271° West 219 252 14,000  Descending Salt Lake Center
05:38AM 45.8581 -110.8942 270° West 219 252 14,100  Climbing Salt Lake Center
05:39AM 45.8600 -110.9814 272° West 219 252 14,000 -60 Descending Salt Lake Center
05:40AM 45.8622 -111.0692 272° West 220 253 14,000  Level Salt Lake Center
05:41AM 45.8594 -111.1636 268° West 221 254 14,000  Level Salt Lake Center
05:42AM 45.8619 -111.2483 272° West 222 255 14,000  Level Salt Lake Center
05:43AM 45.8642 -111.3339 272° West 224 258 14,000  Level Salt Lake Center
05:44AM 45.8628 -111.4189 269° West 220 253 14,000  Level Salt Lake Center
05:45AM 45.8622 -111.5144 270° West 219 252 14,100  Climbing Salt Lake Center
05:46AM 45.8631 -111.5875 271° West 220 253 14,000 -300 Descending Salt Lake Center
05:47AM 45.8622 -111.6861 269° West 222 255 13,500 -600 Descending Salt Lake Center
05:48AM 45.8614 -111.7911 269° West 228 262 12,800 -720 Descending Salt Lake Center
05:49AM 45.8619 -111.8839 271° West 235 270 12,100 -540 Descending Salt Lake Center
05:50AM 45.8622 -111.9750 270° West 238 274 11,800 -480 Descending Salt Lake Center
05:51AM 45.8636 -112.0642 271° West 237 273 11,200 -420 Descending Salt Lake Center
05:52AM 45.8631 -112.1539 270° West 235 270 11,000 -240 Descending Salt Lake Center
05:54AM 45.8748 -112.2411 296° West  Level FlightAware Approximate
06:01AM 45.9500 -112.4833 North  Level FlightAware Approximate
06:02AM 45.9548 -112.4975 North  Level Estimated
06:03AM 45.9548 -112.4975 North  Level Estimated